Time;durP1;ratioP1;P1;durP2;ratioP2;P2;SDS_P1;SDS_P2;PMS_P1;PMS_P2;Temp;Humidity;BMP_temperature;BMP_pressure;BME280_temperature;BME280_humidity;BME280_pressure;Samples;Min_cycle;Max_cycle;Signal;HPM_P1;HPM_P2
2023/11/15 00:00:45;;;;;;;;;;;;;;;;;;5011604;28;20055;-73
2023/11/15 00:03:11;;;;;;;;;;;;;;;;;;5013619;28;19921;-71
2023/11/15 00:05:36;;;;;;;;;;;;;;;;;;5010410;28;19917;-73
2023/11/15 00:08:02;;;;;;;;;;;;;;;;;;5010274;28;19920;-71
2023/11/15 00:10:28;;;;;;;;;;;;;;;;;;5010156;28;20452;-74
2023/11/15 00:12:54;;;;;;;;;;;;;;;;;;5005610;28;20488;-72
2023/11/15 00:15:20;;;;;;;;;;;;;;;;;;5008174;28;19968;-73
2023/11/15 00:17:46;;;;;;;;;;;;;;;;;;5023873;28;20363;-71
2023/11/15 00:20:13;;;;;;;;;;;;;;;;;;5010562;28;20283;-73
2023/11/15 00:22:39;;;;;;;;;;;;;;;;;;5023736;28;20139;-73
2023/11/15 00:25:05;;;;;;;;;;;;;;;;;;5010249;28;19917;-73
2023/11/15 00:27:31;;;;;;;;;;;;;;;;;;5007775;28;19923;-71
2023/11/15 00:29:57;;;;;;;;;;;;;;;;;;5010903;28;19917;-73
2023/11/15 00:32:23;;;;;;;;;;;;;;;;;;5009736;28;20287;-72
2023/11/15 00:34:49;;;;;;;;;;;;;;;;;;5013218;28;19916;-73
2023/11/15 00:37:15;;;;;;;;;;;;;;;;;;5011058;28;19917;-72
2023/11/15 00:39:41;;;;;;;;;;;;;;;;;;5015895;28;19928;-72
2023/11/15 00:42:08;;;;;;;;;;;;;;;;;;5011720;28;19944;-71
2023/11/15 00:44:34;;;;;;;;;;;;;;;;;;5023378;28;20710;-72
2023/11/15 00:47:00;;;;;;;;;;;;;;;;;;5013274;28;19919;-72
2023/11/15 00:49:26;;;;;;;;;;;;;;;;;;5010119;28;19916;-73
2023/11/15 00:51:56;;;;;;;;;;;;;;;;;;5009774;28;19918;-71
2023/11/15 00:54:22;;;;;;;;;;;;;;;;;;5023925;28;20193;-72
2023/11/15 00:56:48;;;;;;;;;;;;;;;;;;5030436;28;19923;-71
2023/11/15 00:59:16;;;;;;;;;;;;;;;;;;5017099;28;20438;-73
2023/11/15 01:01:43;;;;;;;;;;;;;;;;;;5026789;28;19960;-72
2023/11/15 01:04:11;;;;;;;;;;;;;;;;;;5022974;28;20004;-72
2023/11/15 01:06:37;;;;;;;;;;;;;;;;;;5021963;28;20526;-71
2023/11/15 01:09:07;;;;;;;;;;;;;;;;;;5004776;28;19918;-71
2023/11/15 01:11:33;;;;;;;;;;;;;;;;;;5006421;28;20583;-73
2023/11/15 01:13:59;;;;;;;;;;;;;;;;;;5004912;28;19917;-73
2023/11/15 01:16:26;;;;;;;;;;;;;;;;;;5018948;28;19917;-73
2023/11/15 01:18:53;;;;;;;;;;;;;;;;;;5005585;28;20510;-73
2023/11/15 01:21:19;;;;;;;;;;;;;;;;;;5002821;28;20015;-72
2023/11/15 01:23:45;;;;;;;;;;;;;;;;;;5024160;28;20715;-72
2023/11/15 01:26:11;;;;;;;;;;;;;;;;;;5006370;28;19990;-72
2023/11/15 01:28:37;;;;;;;;;;;;;;;;;;5000196;28;19925;-72
2023/11/15 01:31:03;;;;;;;;;;;;;;;;;;5010427;28;19917;-72
2023/11/15 01:33:29;;;;;;;;;;;;;;;;;;5004578;28;19949;-71
2023/11/15 01:35:55;;;;;;;;;;;;;;;;;;5009373;28;20319;-71
2023/11/15 01:38:22;;;;;;;;;;;;;;;;;;5007311;28;21098;-71
2023/11/15 01:40:48;;;;;;;;;;;;;;;;;;5002647;28;19925;-72
2023/11/15 01:43:16;;;;;;;;;;;;;;;;;;5001076;28;19925;-73
2023/11/15 01:45:42;;;;;;;;;;;;;;;;;;5005806;28;19995;-73
2023/11/15 01:48:08;;;;;;;;;;;;;;;;;;5005563;28;20359;-71
2023/11/15 01:50:34;;;;;;;;;;;;;;;;;;5016454;28;20454;-71
2023/11/15 01:53:00;;;;;;;;;;;;;;;;;;5001480;28;19921;-71
2023/11/15 01:55:27;;;;;;;;;;;;;;;;;;5000407;28;19917;-73
2023/11/15 01:57:53;;;;;;;;;;;;;;;;;;5014186;28;20036;-71
2023/11/15 02:00:19;;;;;;;;;;;;;;;;;;5002114;28;19955;-72
2023/11/15 02:02:45;;;;;;;;;;;;;;;;;;5007725;28;19936;-71
2023/11/15 02:05:11;;;;;;;;;;;;;;;;;;5007931;28;19920;-73
2023/11/15 02:07:37;;;;;;;;;;;;;;;;;;5007242;28;19917;-72
2023/11/15 02:10:04;;;;;;;;;;;;;;;;;;5003991;28;20394;-71
2023/11/15 02:12:30;;;;;;;;;;;;;;;;;;5011012;28;20166;-72
2023/11/15 02:14:56;;;;;;;;;;;;;;;;;;5005977;28;20506;-71
2023/11/15 02:17:22;;;;;;;;;;;;;;;;;;5004125;28;19920;-73
2023/11/15 02:19:49;;;;;;;;;;;;;;;;;;5002336;28;19917;-73
2023/11/15 02:22:15;;;;;;;;;;;;;;;;;;5007086;28;19986;-72
2023/11/15 02:24:41;;;;;;;;;;;;;;;;;;5005323;28;20464;-72
2023/11/15 02:27:07;;;;;;;;;;;;;;;;;;5008806;28;19991;-73
2023/11/15 02:29:33;;;;;;;;;;;;;;;;;;5002857;28;20582;-73
2023/11/15 02:31:59;;;;;;;;;;;;;;;;;;5004196;28;20269;-73
2023/11/15 02:34:25;;;;;;;;;;;;;;;;;;5008523;28;19917;-72
2023/11/15 02:36:51;;;;;;;;;;;;;;;;;;5002501;28;19917;-71
2023/11/15 02:39:17;;;;;;;;;;;;;;;;;;5007954;28;20378;-73
2023/11/15 02:41:43;;;;;;;;;;;;;;;;;;5007604;28;20307;-72
2023/11/15 02:44:10;;;;;;;;;;;;;;;;;;5006756;28;19920;-73
2023/11/15 02:46:36;;;;;;;;;;;;;;;;;;5006174;28;20321;-72
2023/11/15 02:49:02;;;;;;;;;;;;;;;;;;5005159;28;19991;-72
2023/11/15 02:51:28;;;;;;;;;;;;;;;;;;4999820;28;20376;-72
2023/11/15 02:53:54;;;;;;;;;;;;;;;;;;5018516;28;20024;-72
2023/11/15 02:56:20;;;;;;;;;;;;;;;;;;5003459;28;20344;-72
2023/11/15 02:58:46;;;;;;;;;;;;;;;;;;5021169;28;19987;-72
2023/11/15 03:01:12;;;;;;;;;;;;;;;;;;5009937;28;20453;-73
2023/11/15 03:03:39;;;;;;;;;;;;;;;;;;5011555;28;19921;-71
2023/11/15 03:06:05;;;;;;;;;;;;;;;;;;5006903;28;20445;-73
2023/11/15 03:08:31;;;;;;;;;;;;;;;;;;5005313;28;20011;-72
2023/11/15 03:10:57;;;;;;;;;;;;;;;;;;5010210;28;19960;-73
2023/11/15 03:13:23;;;;;;;;;;;;;;;;;;5000350;28;19944;-72
2023/11/15 03:15:50;;;;;;;;;;;;;;;;;;5005982;28;19917;-72
2023/11/15 03:18:16;;;;;;;;;;;;;;;;;;5000970;28;19921;-72
2023/11/15 03:20:42;;;;;;;;;;;;;;;;;;5022193;28;20229;-72
2023/11/15 03:23:09;;;;;;;;;;;;;;;;;;5008128;28;19933;-71
2023/11/15 03:25:35;;;;;;;;;;;;;;;;;;5002063;28;20346;-72
2023/11/15 03:28:01;;;;;;;;;;;;;;;;;;5005883;28;19921;-72
2023/11/15 03:30:27;;;;;;;;;;;;;;;;;;5006127;28;19916;-71
2023/11/15 03:32:53;;;;;;;;;;;;;;;;;;5004825;28;19956;-72
2023/11/15 03:35:20;;;;;;;;;;;;;;;;;;5002741;28;19924;-72
2023/11/15 03:37:46;;;;;;;;;;;;;;;;;;5020798;28;20156;-72
2023/11/15 03:40:12;;;;;;;;;;;;;;;;;;5004457;28;20430;-72
2023/11/15 03:42:38;;;;;;;;;;;;;;;;;;5008789;28;20354;-72
2023/11/15 03:45:04;;;;;;;;;;;;;;;;;;5007858;28;19917;-72
2023/11/15 03:47:31;;;;;;;;;;;;;;;;;;5006231;28;19917;-71
2023/11/15 03:49:57;;;;;;;;;;;;;;;;;;5015532;28;19987;-72
2023/11/15 03:52:23;;;;;;;;;;;;;;;;;;5007568;28;20364;-72
2023/11/15 03:54:49;;;;;;;;;;;;;;;;;;5012187;28;19917;-72
2023/11/15 03:57:15;;;;;;;;;;;;;;;;;;5009332;28;19969;-71
2023/11/15 03:59:41;;;;;;;;;;;;;;;;;;5009052;28;20027;-73
2023/11/15 04:02:07;;;;;;;;;;;;;;;;;;5009439;28;19922;-72
2023/11/15 04:04:33;;;;;;;;;;;;;;;;;;5005527;28;20610;-73
2023/11/15 04:06:59;;;;;;;;;;;;;;;;;;5008926;28;19959;-73
2023/11/15 04:09:25;;;;;;;;;;;;;;;;;;5005891;28;20306;-72
2023/11/15 04:11:51;;;;;;;;;;;;;;;;;;5010720;28;19927;-71
2023/11/15 04:14:17;;;;;;;;;;;;;;;;;;5006768;28;19918;-71
2023/11/15 04:16:43;;;;;;;;;;;;;;;;;;5004498;28;20014;-72
2023/11/15 04:19:10;;;;;;;;;;;;;;;;;;5010277;28;20008;-72
2023/11/15 04:21:36;;;;;;;;;;;;;;;;;;5006265;28;19921;-73
2023/11/15 04:24:02;;;;;;;;;;;;;;;;;;5011320;28;19928;-73
2023/11/15 04:26:28;;;;;;;;;;;;;;;;;;5007583;28;19921;-72
2023/11/15 04:28:54;;;;;;;;;;;;;;;;;;5018972;28;19917;-72
2023/11/15 04:31:24;;;;;;;;;;;;;;;;;;5007130;28;19921;-72
2023/11/15 04:33:51;;;;;;;;;;;;;;;;;;5025911;28;20252;-71
2023/11/15 04:36:19;;;;;;;;;;;;;;;;;;5006901;28;20370;-71
2023/11/15 04:38:45;;;;;;;;;;;;;;;;;;5007635;28;19964;-74
2023/11/15 04:41:11;;;;;;;;;;;;;;;;;;5007879;28;19917;-72
2023/11/15 04:43:37;;;;;;;;;;;;;;;;;;5004809;28;20007;-73
2023/11/15 04:46:04;;;;;;;;;;;;;;;;;;5009677;28;20150;-72
2023/11/15 04:48:30;;;;;;;;;;;;;;;;;;5007805;28;19917;-71
2023/11/15 04:50:57;;;;;;;;;;;;;;;;;;5009054;28;20024;-74
2023/11/15 04:53:24;;;;;;;;;;;;;;;;;;5004027;28;19952;-72
2023/11/15 04:55:50;;;;;;;;;;;;;;;;;;5014072;28;19998;-72
2023/11/15 04:58:16;;;;;;;;;;;;;;;;;;5008813;28;20360;-72
2023/11/15 05:00:42;;;;;;;;;;;;;;;;;;5026921;28;19917;-72
2023/11/15 05:03:10;;;;;;;;;;;;;;;;;;5008569;28;19979;-73
2023/11/15 05:05:36;;;;;;;;;;;;;;;;;;5005986;28;19960;-72
2023/11/15 05:08:02;;;;;;;;;;;;;;;;;;5008399;28;20043;-72
2023/11/15 05:10:28;;;;;;;;;;;;;;;;;;5005896;28;20320;-72
2023/11/15 05:12:55;;;;;;;;;;;;;;;;;;5010641;28;19940;-73
2023/11/15 05:15:20;;;;;;;;;;;;;;;;;;5013639;28;19923;-71
2023/11/15 05:17:47;;;;;;;;;;;;;;;;;;5010822;28;19917;-73
2023/11/15 05:20:13;;;;;;;;;;;;;;;;;;5010678;28;20290;-73
2023/11/15 05:22:39;;;;;;;;;;;;;;;;;;5005286;28;20355;-71
2023/11/15 05:25:05;;;;;;;;;;;;;;;;;;5005616;28;20511;-72
2023/11/15 05:27:31;;;;;;;;;;;;;;;;;;4999032;28;19924;-66
2023/11/15 05:29:57;;;;;;;;;;;;;;;;;;5003257;28;20388;-69
2023/11/15 05:32:23;;;;;;;;;;;;;;;;;;4996936;28;20438;-68
2023/11/15 05:34:50;;;;;;;;;;;;;;;;;;5013515;28;20020;-67
2023/11/15 05:37:15;;;;;;;;;;;;;;;;;;5003697;28;19917;-66
2023/11/15 05:39:43;;;;;;;;;;;;;;;;;;5005067;28;19944;-69
2023/11/15 05:42:09;;;;;;;;;;;;;;;;;;5005146;28;20018;-71
2023/11/15 05:44:35;;;;;;;;;;;;;;;;;;5005579;28;20553;-70
2023/11/15 05:47:02;;;;;;;;;;;;;;;;;;5006532;28;19918;-71
2023/11/15 05:49:28;;;;;;;;;;;;;;;;;;5018677;28;19917;-71
2023/11/15 05:51:54;;;;;;;;;;;;;;;;;;5002004;28;20015;-71
2023/11/15 05:54:20;;;;;;;;;;;;;;;;;;5001410;28;19928;-72
2023/11/15 05:56:49;;;;;;;;;;;;;;;;;;5017927;28;19917;-70
2023/11/15 05:59:15;;;;;;;;;;;;;;;;;;5017952;28;20284;-71
2023/11/15 06:01:41;;;;;;;;;;;;;;;;;;5003222;28;20326;-71
2023/11/15 06:04:07;;;;;;;;;;;;;;;;;;5002896;28;20083;-70
2023/11/15 06:06:33;;;;;;;;;;;;;;;;;;5000964;28;20456;-71
2023/11/15 06:08:59;;;;;;;;;;;;;;;;;;5006294;28;20011;-72
2023/11/15 06:11:25;;;;;;;;;;;;;;;;;;5004999;28;19956;-70
2023/11/15 06:13:51;;;;;;;;;;;;;;;;;;5017988;28;20443;-72
2023/11/15 06:16:19;;;;;;;;;;;;;;;;;;5007524;28;20152;-70
2023/11/15 06:18:45;;;;;;;;;;;;;;;;;;5008921;28;19913;-71
2023/11/15 06:21:11;;;;;;;;;;;;;;;;;;5005909;28;19928;-70
2023/11/15 06:23:39;;;;;;;;;;;;;;;;;;5005066;28;20201;-72
2023/11/15 06:26:05;;;;;;;;;;;;;;;;;;5002079;28;20500;-72
2023/11/15 06:28:31;;;;;;;;;;;;;;;;;;5008293;28;19943;-72
2023/11/15 06:30:57;;;;;;;;;;;;;;;;;;5010091;28;19940;-70
2023/11/15 06:33:24;;;;;;;;;;;;;;;;;;5016642;28;19917;-70
2023/11/15 06:35:51;;;;;;;;;;;;;;;;;;5002797;28;19969;-70
2023/11/15 06:38:18;;;;;;;;;;;;;;;;;;4999685;28;20429;-72
2023/11/15 06:40:44;;;;;;;;;;;;;;;;;;5007372;28;20330;-72
2023/11/15 06:43:11;;;;;;;;;;;;;;;;;;5008581;28;20559;-71
2023/11/15 06:45:37;;;;;;;;;;;;;;;;;;5003733;28;20244;-71
2023/11/15 06:48:03;;;;;;;;;;;;;;;;;;5004461;28;19924;-71
2023/11/15 06:50:30;;;;;;;;;;;;;;;;;;5004865;28;19925;-72
2023/11/15 06:52:55;;;;;;;;;;;;;;;;;;5004441;28;19956;-70
2023/11/15 06:55:21;;;;;;;;;;;;;;;;;;5002942;28;20350;-73
2023/11/15 06:57:47;;;;;;;;;;;;;;;;;;5009086;28;20374;-72
2023/11/15 07:00:13;;;;;;;;;;;;;;;;;;5005167;28;19917;-71
2023/11/15 07:02:40;;;;;;;;;;;;;;;;;;5009361;28;19947;-71
2023/11/15 07:05:07;;;;;;;;;;;;;;;;;;5008301;28;20342;-71
2023/11/15 07:07:33;;;;;;;;;;;;;;;;;;5002905;28;20433;-71
2023/11/15 07:09:59;;;;;;;;;;;;;;;;;;5007997;28;19960;-73
2023/11/15 07:12:25;;;;;;;;;;;;;;;;;;5005759;28;20439;-73
2023/11/15 07:14:55;;;;;;;;;;;;;;;;;;5009360;28;19928;-73
2023/11/15 07:17:21;;;;;;;;;;;;;;;;;;5007797;28;19916;-73
2023/11/15 07:19:50;;;;;;;;;;;;;;;;;;5025999;28;19924;-73
2023/11/15 07:22:17;;;;;;;;;;;;;;;;;;5009415;28;19933;-73
2023/11/15 07:24:43;;;;;;;;;;;;;;;;;;5022064;28;20371;-73
2023/11/15 07:27:09;;;;;;;;;;;;;;;;;;5007251;28;19928;-73
2023/11/15 07:29:36;;;;;;;;;;;;;;;;;;5021387;28;19941;-73
2023/11/15 07:32:03;;;;;;;;;;;;;;;;;;5008436;28;19929;-72
2023/11/15 07:34:29;;;;;;;;;;;;;;;;;;5022335;28;20377;-72
2023/11/15 07:36:58;;;;;;;;;;;;;;;;;;5004525;28;20183;-72
2023/11/15 07:39:24;;;;;;;;;;;;;;;;;;5009881;28;20283;-72
2023/11/15 07:41:50;;;;;;;;;;;;;;;;;;5007290;28;20604;-72
2023/11/15 07:44:17;;;;;;;;;;;;;;;;;;5020556;28;19928;-71
2023/11/15 07:46:43;;;;;;;;;;;;;;;;;;5008864;28;19917;-73
2023/11/15 07:49:09;;;;;;;;;;;;;;;;;;5008969;28;19922;-72
2023/11/15 07:51:35;;;;;;;;;;;;;;;;;;5009492;28;20012;-73
2023/11/15 07:54:02;;;;;;;;;;;;;;;;;;5007942;28;20424;-73
2023/11/15 07:56:28;;;;;;;;;;;;;;;;;;5008022;28;19924;-73
2023/11/15 07:58:54;;;;;;;;;;;;;;;;;;5016456;28;19924;-73
2023/11/15 08:01:22;;;;;;;;;;;;;;;;;;5008073;28;19917;-72
2023/11/15 08:03:49;;;;;;;;;;;;;;;;;;5019717;28;20426;-72
2023/11/15 08:06:15;;;;;;;;;;;;;;;;;;5011895;28;19924;-71
2023/11/15 08:08:42;;;;;;;;;;;;;;;;;;5027018;28;19924;-72
2023/11/15 08:11:10;;;;;;;;;;;;;;;;;;5029731;28;19923;-72
2023/11/15 08:13:35;;;;;;;;;;;;;;;;;;5024219;28;20153;-72
2023/11/15 08:16:02;;;;;;;;;;;;;;;;;;5025227;28;19923;-72
2023/11/15 08:18:30;;;;;;;;;;;;;;;;;;5028025;28;20208;-72
2023/11/15 08:20:56;;;;;;;;;;;;;;;;;;5023345;28;20282;-71
2023/11/15 08:23:23;;;;;;;;;;;;;;;;;;5021702;28;19929;-71
2023/11/15 08:25:50;;;;;;;;;;;;;;;;;;5012450;28;20156;-71
2023/11/15 08:28:16;;;;;;;;;;;;;;;;;;5005565;28;20002;-71
2023/11/15 08:30:44;;;;;;;;;;;;;;;;;;5013045;28;20334;-73
2023/11/15 08:33:10;;;;;;;;;;;;;;;;;;5012070;28;20240;-72
2023/11/15 08:35:36;;;;;;;;;;;;;;;;;;5008880;28;20441;-73
2023/11/15 08:38:02;;;;;;;;;;;;;;;;;;5011109;28;20055;-72
2023/11/15 08:40:28;;;;;;;;;;;;;;;;;;5009592;28;20515;-72
2023/11/15 08:42:54;;;;;;;;;;;;;;;;;;5025589;28;20422;-72
2023/11/15 08:45:20;;;;;;;;;;;;;;;;;;5005480;28;20509;-72
2023/11/15 08:47:46;;;;;;;;;;;;;;;;;;5013890;28;19913;-71
2023/11/15 08:50:14;;;;;;;;;;;;;;;;;;5012580;28;20117;-71
2023/11/15 08:52:40;;;;;;;;;;;;;;;;;;5009489;28;19917;-72
2023/11/15 08:55:06;;;;;;;;;;;;;;;;;;5009010;28;19922;-74
2023/11/15 08:57:32;;;;;;;;;;;;;;;;;;5005352;28;20279;-71
2023/11/15 08:59:58;;;;;;;;;;;;;;;;;;5022325;28;19917;-72
2023/11/15 09:02:24;;;;;;;;;;;;;;;;;;5010155;28;19983;-73
2023/11/15 09:04:53;;;;;;;;;;;;;;;;;;5012733;28;20208;-73
2023/11/15 09:07:19;;;;;;;;;;;;;;;;;;5018195;28;19916;-72
2023/11/15 09:09:46;;;;;;;;;;;;;;;;;;5009637;28;20625;-73
2023/11/15 09:12:12;;;;;;;;;;;;;;;;;;5007952;28;20004;-73
2023/11/15 09:14:38;;;;;;;;;;;;;;;;;;5012354;28;19917;-73
2023/11/15 09:17:05;;;;;;;;;;;;;;;;;;5011293;28;20332;-72
2023/11/15 09:19:32;;;;;;;;;;;;;;;;;;5005921;28;20153;-71
2023/11/15 09:22:01;;;;;;;;;;;;;;;;;;5011938;28;20336;-72
2023/11/15 09:24:27;;;;;;;;;;;;;;;;;;5025051;28;19916;-73
2023/11/15 09:26:52;;;;;;;;;;;;;;;;;;5022194;28;20021;-71
2023/11/15 09:29:19;;;;;;;;;;;;;;;;;;5007145;28;19917;-72
2023/11/15 09:31:45;;;;;;;;;;;;;;;;;;5010540;28;19917;-72
2023/11/15 09:34:11;;;;;;;;;;;;;;;;;;5009355;28;19969;-71
2023/11/15 09:36:37;;;;;;;;;;;;;;;;;;5009658;28;19917;-71
2023/11/15 09:39:06;;;;;;;;;;;;;;;;;;5021224;28;20721;-73
2023/11/15 09:41:33;;;;;;;;;;;;;;;;;;5002022;28;19928;-73
2023/11/15 09:44:01;;;;;;;;;;;;;;;;;;5007274;28;20006;-73
2023/11/15 09:46:27;;;;;;;;;;;;;;;;;;5006061;28;19924;-72
2023/11/15 09:48:55;;;;;;;;;;;;;;;;;;5010832;28;19917;-72
2023/11/15 09:51:21;;;;;;;;;;;;;;;;;;5005138;28;20398;-71
2023/11/15 09:53:47;;;;;;;;;;;;;;;;;;5004916;28;19925;-71
2023/11/15 09:56:15;;;;;;;;;;;;;;;;;;5015035;28;19916;-72
2023/11/15 09:58:41;;;;;;;;;;;;;;;;;;5011519;28;19977;-72
2023/11/15 10:01:08;;;;;;;;;;;;;;;;;;5028325;28;20018;-72
2023/11/15 10:03:34;;;;;;;;;;;;;;;;;;5008075;28;20278;-72
2023/11/15 10:06:02;;;;;;;;;;;;;;;;;;5004069;28;19969;-73
2023/11/15 10:08:30;;;;;;;;;;;;;;;;;;5003738;28;19979;-72
2023/11/15 10:10:55;;;;;;;;;;;;;;;;;;5005965;28;19976;-73
2023/11/15 10:13:22;;;;;;;;;;;;;;;;;;5003593;28;20481;-73
2023/11/15 10:15:48;;;;;;;;;;;;;;;;;;5005800;28;20397;-72
2023/11/15 10:18:14;;;;;;;;;;;;;;;;;;5001057;28;20265;-72
2023/11/15 10:20:41;;;;;;;;;;;;;;;;;;5019948;28;19921;-73
2023/11/15 10:23:07;;;;;;;;;;;;;;;;;;5002914;28;20133;-72
2023/11/15 10:25:35;;;;;;;;;;;;;;;;;;5007285;28;19921;-72
2023/11/15 10:28:03;;;;;;;;;;;;;;;;;;5007263;28;19917;-72
2023/11/15 10:30:29;;;;;;;;;;;;;;;;;;5006539;28;19917;-72
2023/11/15 10:32:55;;;;;;;;;;;;;;;;;;5005091;28;20138;-72
2023/11/15 10:35:22;;;;;;;;;;;;;;;;;;5006414;28;20181;-73
2023/11/15 10:37:48;;;;;;;;;;;;;;;;;;5006550;28;19917;-73
2023/11/15 10:40:14;;;;;;;;;;;;;;;;;;5002965;28;20021;-73
2023/11/15 10:42:40;;;;;;;;;;;;;;;;;;5011330;28;19921;-72
2023/11/15 10:45:08;;;;;;;;;;;;;;;;;;5008788;28;19951;-72
2023/11/15 10:47:34;;;;;;;;;;;;;;;;;;5009786;28;21049;-72
2023/11/15 10:50:00;;;;;;;;;;;;;;;;;;5007821;28;19972;-73
2023/11/15 10:52:26;;;;;;;;;;;;;;;;;;5012715;28;19928;-72
2023/11/15 10:54:52;;;;;;;;;;;;;;;;;;5009918;28;19917;-72
2023/11/15 10:57:18;;;;;;;;;;;;;;;;;;5011907;28;20707;-72
2023/11/15 10:59:47;;;;;;;;;;;;;;;;;;5014963;28;19964;-72
2023/11/15 11:02:13;;;;;;;;;;;;;;;;;;5010202;28;20264;-73
2023/11/15 11:04:39;;;;;;;;;;;;;;;;;;5012359;28;19971;-72
2023/11/15 11:07:07;;;;;;;;;;;;;;;;;;5013258;28;20347;-73
2023/11/15 11:09:34;;;;;;;;;;;;;;;;;;5019753;28;19971;-73
2023/11/15 11:12:00;;;;;;;;;;;;;;;;;;5012763;28;20303;-72
2023/11/15 11:14:27;;;;;;;;;;;;;;;;;;5006656;28;19922;-73
2023/11/15 11:16:53;;;;;;;;;;;;;;;;;;5014943;28;20140;-72
2023/11/15 11:19:22;;;;;;;;;;;;;;;;;;5011714;28;19917;-72
2023/11/15 11:21:48;;;;;;;;;;;;;;;;;;5016374;28;19929;-71
2023/11/15 11:24:15;;;;;;;;;;;;;;;;;;5007288;28;19925;-72
2023/11/15 11:26:41;;;;;;;;;;;;;;;;;;5011659;28;19921;-72
2023/11/15 11:29:08;;;;;;;;;;;;;;;;;;5009078;28;19974;-72
2023/11/15 11:31:35;;;;;;;;;;;;;;;;;;5008190;28;20424;-71
2023/11/15 11:34:01;;;;;;;;;;;;;;;;;;5008441;28;19921;-72
2023/11/15 11:36:27;;;;;;;;;;;;;;;;;;5006543;28;20321;-72
2023/11/15 11:38:53;;;;;;;;;;;;;;;;;;5010281;28;20462;-72
2023/11/15 11:41:19;;;;;;;;;;;;;;;;;;5023930;28;19917;-72
2023/11/15 11:43:46;;;;;;;;;;;;;;;;;;5012111;28;19952;-73
2023/11/15 11:46:13;;;;;;;;;;;;;;;;;;5011960;28;19924;-73
2023/11/15 11:48:39;;;;;;;;;;;;;;;;;;5010179;28;20052;-71
2023/11/15 11:51:06;;;;;;;;;;;;;;;;;;5011043;28;19925;-73
2023/11/15 11:53:31;;;;;;;;;;;;;;;;;;5001612;28;19940;-72
2023/11/15 11:55:57;;;;;;;;;;;;;;;;;;5015309;28;19917;-72
2023/11/15 11:58:24;;;;;;;;;;;;;;;;;;5005538;28;19977;-72
2023/11/15 12:00:50;;;;;;;;;;;;;;;;;;5006616;28;19995;-72
2023/11/15 12:03:16;;;;;;;;;;;;;;;;;;5007822;28;19999;-73
2023/11/15 12:05:43;;;;;;;;;;;;;;;;;;5009118;28;19925;-71
2023/11/15 12:08:09;;;;;;;;;;;;;;;;;;5008994;28;19917;-73
2023/11/15 12:10:35;;;;;;;;;;;;;;;;;;5006546;28;20461;-72
2023/11/15 12:13:01;;;;;;;;;;;;;;;;;;5005442;28;19925;-73
2023/11/15 12:15:28;;;;;;;;;;;;;;;;;;5006055;28;19917;-73
2023/11/15 12:17:54;;;;;;;;;;;;;;;;;;5009799;28;19925;-73
2023/11/15 12:20:20;;;;;;;;;;;;;;;;;;5008930;28;19917;-71
2023/11/15 12:22:46;;;;;;;;;;;;;;;;;;5010319;28;19929;-72
2023/11/15 12:25:15;;;;;;;;;;;;;;;;;;5005363;28;20005;-72
2023/11/15 12:27:41;;;;;;;;;;;;;;;;;;5005884;28;20331;-73
2023/11/15 12:30:08;;;;;;;;;;;;;;;;;;5009441;28;19917;-73
2023/11/15 12:32:35;;;;;;;;;;;;;;;;;;5008837;28;20043;-71
2023/11/15 12:35:01;;;;;;;;;;;;;;;;;;5012613;28;19917;-72
2023/11/15 12:37:27;;;;;;;;;;;;;;;;;;5006197;28;19917;-72
2023/11/15 12:39:53;;;;;;;;;;;;;;;;;;5012843;28;19917;-73
2023/11/15 12:42:19;;;;;;;;;;;;;;;;;;5007638;28;19968;-73
2023/11/15 12:44:45;;;;;;;;;;;;;;;;;;5012269;28;19948;-72
2023/11/15 12:47:12;;;;;;;;;;;;;;;;;;5009010;28;20015;-71
2023/11/15 12:49:39;;;;;;;;;;;;;;;;;;5009518;28;20015;-73
2023/11/15 12:52:05;;;;;;;;;;;;;;;;;;5008837;28;20379;-73
2023/11/15 12:54:32;;;;;;;;;;;;;;;;;;5019628;28;19917;-73
2023/11/15 12:56:58;;;;;;;;;;;;;;;;;;5023899;28;19917;-72
2023/11/15 12:59:24;;;;;;;;;;;;;;;;;;5015624;28;19916;-66
2023/11/15 13:01:50;;;;;;;;;;;;;;;;;;5012287;28;19917;-68
2023/11/15 13:04:16;;;;;;;;;;;;;;;;;;5006903;28;19917;-67
2023/11/15 13:06:43;;;;;;;;;;;;;;;;;;5022740;28;19944;-68
2023/11/15 13:09:14;;;;;;;;;;;;;;;;;;5008723;28;20249;-69
2023/11/15 13:11:41;;;;;;;;;;;;;;;;;;5018015;28;20493;-66
2023/11/15 13:14:08;;;;;;;;;;;;;;;;;;5003269;28;20355;-67
2023/11/15 13:16:34;;;;;;;;;;;;;;;;;;5006474;28;19921;-70
2023/11/15 13:19:00;;;;;;;;;;;;;;;;;;5008364;28;20248;-68
2023/11/15 13:21:26;;;;;;;;;;;;;;;;;;5009548;28;19921;-66
2023/11/15 13:23:52;;;;;;;;;;;;;;;;;;5002239;28;19935;-67
2023/11/15 13:26:19;;;;;;;;;;;;;;;;;;5004597;28;20417;-65
2023/11/15 13:28:47;;;;;;;;;;;;;;;;;;5009751;28;20603;-66
2023/11/15 13:31:13;;;;;;;;;;;;;;;;;;5010700;28;19923;-68
2023/11/15 13:33:39;;;;;;;;;;;;;;;;;;5002746;28;19918;-67
2023/11/15 13:36:05;;;;;;;;;;;;;;;;;;5022147;28;19918;-67
2023/11/15 13:38:33;;;;;;;;;;;;;;;;;;4998345;28;20378;-67
2023/11/15 13:40:59;;;;;;;;;;;;;;;;;;5002644;28;20027;-66
2023/11/15 13:43:24;;;;;;;;;;;;;;;;;;5004788;28;20410;-67
2023/11/15 13:45:50;;;;;;;;;;;;;;;;;;5005892;28;19921;-67
2023/11/15 13:48:17;;;;;;;;;;;;;;;;;;5004098;28;20267;-67
2023/11/15 13:50:43;;;;;;;;;;;;;;;;;;5004878;28;21104;-68
2023/11/15 13:53:09;;;;;;;;;;;;;;;;;;5007543;28;19960;-68
2023/11/15 13:55:37;;;;;;;;;;;;;;;;;;4999059;28;20004;-67
2023/11/15 13:58:03;;;;;;;;;;;;;;;;;;5004495;28;20291;-68
2023/11/15 14:00:33;;;;;;;;;;;;;;;;;;5003996;28;20437;-66
2023/11/15 14:02:59;;;;;;;;;;;;;;;;;;5004644;28;19922;-67
2023/11/15 14:05:25;;;;;;;;;;;;;;;;;;4998507;28;20173;-69
2023/11/15 14:07:52;;;;;;;;;;;;;;;;;;5004168;28;20131;-66
2023/11/15 14:10:25;;;;;;;;;;;;;;;;;;5006149;28;19917;-67
2023/11/15 14:12:51;;;;;;;;;;;;;;;;;;5004966;28;19917;-66
2023/11/15 14:15:18;;;;;;;;;;;;;;;;;;5007680;28;19917;-66
2023/11/15 14:17:46;;;;;;;;;;;;;;;;;;5006003;28;19917;-66
2023/11/15 14:20:12;;;;;;;;;;;;;;;;;;5009157;28;19920;-68
2023/11/15 14:22:40;;;;;;;;;;;;;;;;;;5002683;28;19936;-68
2023/11/15 14:25:19;;;;;;;;;;;;;;;;;;5004575;28;19917;-66
2023/11/15 14:27:45;;;;;;;;;;;;;;;;;;5003412;28;20530;-66
2023/11/15 14:30:11;;;;;;;;;;;;;;;;;;5008626;28;19913;-68
2023/11/15 14:32:37;;;;;;;;;;;;;;;;;;5004148;28;19935;-66
2023/11/15 14:35:08;;;;;;;;;;;;;;;;;;5019183;28;19998;-66
2023/11/15 14:37:34;;;;;;;;;;;;;;;;;;5001805;28;19960;-66
2023/11/15 14:40:00;;;;;;;;;;;;;;;;;;5007965;28;20334;-66
2023/11/15 14:42:26;;;;;;;;;;;;;;;;;;5002146;28;20151;-67
2023/11/15 14:44:52;;;;;;;;;;;;;;;;;;5011497;28;20114;-66
2023/11/15 14:47:19;;;;;;;;;;;;;;;;;;5006891;28;20324;-68
2023/11/15 14:49:45;;;;;;;;;;;;;;;;;;5002730;28;19925;-66
2023/11/15 14:52:12;;;;;;;;;;;;;;;;;;5004024;28;20222;-68
2023/11/15 14:54:42;;;;;;;;;;;;;;;;;;5004028;28;20395;-67
2023/11/15 14:57:08;;;;;;;;;;;;;;;;;;5008257;28;20033;-66
2023/11/15 14:59:35;;;;;;;;;;;;;;;;;;5002073;28;19922;-67
2023/11/15 15:02:01;;;;;;;;;;;;;;;;;;5005114;28;19920;-66
2023/11/15 15:04:28;;;;;;;;;;;;;;;;;;5000445;28;19917;-67
2023/11/15 15:06:54;;;;;;;;;;;;;;;;;;5007084;28;19921;-67
2023/11/15 15:09:20;;;;;;;;;;;;;;;;;;5010918;28;19917;-67
2023/11/15 15:11:46;;;;;;;;;;;;;;;;;;5011194;28;19979;-67
2023/11/15 15:14:14;;;;;;;;;;;;;;;;;;5011699;28;19917;-67
2023/11/15 15:16:40;;;;;;;;;;;;;;;;;;5005764;28;19928;-67
2023/11/15 15:19:08;;;;;;;;;;;;;;;;;;5007133;28;19922;-66
2023/11/15 15:21:34;;;;;;;;;;;;;;;;;;5003221;28;20268;-67
2023/11/15 15:24:00;;;;;;;;;;;;;;;;;;5004297;28;19930;-68
2023/11/15 15:26:26;;;;;;;;;;;;;;;;;;5005741;28;19959;-70
2023/11/15 15:28:53;;;;;;;;;;;;;;;;;;5007968;28;19964;-68
2023/11/15 15:31:19;;;;;;;;;;;;;;;;;;5003895;28;19929;-69
2023/11/15 15:33:45;;;;;;;;;;;;;;;;;;5010019;28;20297;-67
2023/11/15 15:36:12;;;;;;;;;;;;;;;;;;5007693;28;19952;-66
2023/11/15 15:38:38;;;;;;;;;;;;;;;;;;5013730;28;19956;-68
2023/11/15 15:41:04;;;;;;;;;;;;;;;;;;5016275;28;20130;-68
2023/11/15 15:43:30;;;;;;;;;;;;;;;;;;5014723;28;20503;-68
2023/11/15 15:45:56;;;;;;;;;;;;;;;;;;5014335;28;19917;-66
2023/11/15 15:48:23;;;;;;;;;;;;;;;;;;5008341;28;19920;-68
2023/11/15 15:50:52;;;;;;;;;;;;;;;;;;5011947;28;19925;-67
2023/11/15 15:53:18;;;;;;;;;;;;;;;;;;5008831;28;19921;-66
2023/11/15 15:55:44;;;;;;;;;;;;;;;;;;5016160;28;20504;-67
2023/11/15 15:58:10;;;;;;;;;;;;;;;;;;5012457;28;20274;-67
2023/11/15 16:00:38;;;;;;;;;;;;;;;;;;5009220;28;19988;-68
2023/11/15 16:03:04;;;;;;;;;;;;;;;;;;5012559;28;20416;-66
2023/11/15 16:05:30;;;;;;;;;;;;;;;;;;5008722;28;20628;-68
2023/11/15 16:07:56;;;;;;;;;;;;;;;;;;5010816;28;20414;-66
2023/11/15 16:10:22;;;;;;;;;;;;;;;;;;5009093;28;19924;-68
2023/11/15 16:12:49;;;;;;;;;;;;;;;;;;5015357;28;20488;-66
2023/11/15 16:15:19;;;;;;;;;;;;;;;;;;5011024;28;19917;-66
2023/11/15 16:17:47;;;;;;;;;;;;;;;;;;5010687;28;19912;-68
2023/11/15 16:20:16;;;;;;;;;;;;;;;;;;5007593;28;19971;-68
2023/11/15 16:22:42;;;;;;;;;;;;;;;;;;5010013;28;19930;-66
2023/11/15 16:25:10;;;;;;;;;;;;;;;;;;5010610;28;19917;-68
2023/11/15 16:27:37;;;;;;;;;;;;;;;;;;5004964;28;19917;-67
2023/11/15 16:30:03;;;;;;;;;;;;;;;;;;5012992;28;19921;-67
2023/11/15 16:32:29;;;;;;;;;;;;;;;;;;5008177;28;20442;-68
2023/11/15 16:34:55;;;;;;;;;;;;;;;;;;5007839;28;20007;-68
2023/11/15 16:37:21;;;;;;;;;;;;;;;;;;5002837;28;20012;-67
2023/11/15 16:39:49;;;;;;;;;;;;;;;;;;5010638;28;20032;-67